sensor_id;sensor_type;location;lat;lon;timestamp;pressure;altitude;pressure_sealevel;temperature
67515;BMP280;60646;55.802;37.032;2023-02-28T00:01:01;100199.66;;;-1.58
67515;BMP280;60646;55.802;37.032;2023-02-28T00:03:26;100174.25;;;-1.71
67515;BMP280;60646;55.802;37.032;2023-02-28T00:05:52;100186.22;;;-1.60
67515;BMP280;60646;55.802;37.032;2023-02-28T00:08:18;100191.44;;;-1.56
67515;BMP280;60646;55.802;37.032;2023-02-28T00:10:43;100188.78;;;-1.53
67515;BMP280;60646;55.802;37.032;2023-02-28T00:13:09;100175.00;;;-1.60
67515;BMP280;60646;55.802;37.032;2023-02-28T00:15:36;100189.91;;;-1.54
67515;BMP280;60646;55.802;37.032;2023-02-28T00:18:02;100189.91;;;-1.47
67515;BMP280;60646;55.802;37.032;2023-02-28T00:20:28;100177.19;;;-1.52
67515;BMP280;60646;55.802;37.032;2023-02-28T00:22:55;100188.03;;;-1.46
67515;BMP280;60646;55.802;37.032;2023-02-28T00:25:23;100148.06;;;-1.61
67515;BMP280;60646;55.802;37.032;2023-02-28T00:27:50;100161.88;;;-1.57
67515;BMP280;60646;55.802;37.032;2023-02-28T00:30:21;100180.19;;;-1.46
67515;BMP280;60646;55.802;37.032;2023-02-28T00:32:48;100153.28;;;-1.61
67515;BMP280;60646;55.802;37.032;2023-02-28T00:35:14;100154.03;;;-1.57
67515;BMP280;60646;55.802;37.032;2023-02-28T00:37:40;100155.53;;;-1.56
67515;BMP280;60646;55.802;37.032;2023-02-28T00:40:07;100147.28;;;-1.58
67515;BMP280;60646;55.802;37.032;2023-02-28T00:42:36;100148.78;;;-1.57
67515;BMP280;60646;55.802;37.032;2023-02-28T00:45:02;100168.97;;;-1.47
67515;BMP280;60646;55.802;37.032;2023-02-28T00:47:32;100156.97;;;-1.48
67515;BMP280;60646;55.802;37.032;2023-02-28T00:49:57;100139.06;;;-1.63
67515;BMP280;60646;55.802;37.032;2023-02-28T00:52:23;100134.97;;;-1.61
67515;BMP280;60646;55.802;37.032;2023-02-28T00:54:49;100122.25;;;-1.66
67515;BMP280;60646;55.802;37.032;2023-02-28T00:57:15;100118.50;;;-1.65
67515;BMP280;60646;55.802;37.032;2023-02-28T00:59:40;100121.13;;;-1.65
67515;BMP280;60646;55.802;37.032;2023-02-28T01:02:06;100117.41;;;-1.71
67515;BMP280;60646;55.802;37.032;2023-02-28T01:04:32;100115.16;;;-1.69
67515;BMP280;60646;55.802;37.032;2023-02-28T01:07:00;100117.41;;;-1.64
67515;BMP280;60646;55.802;37.032;2023-02-28T01:09:27;100100.19;;;-1.72
67515;BMP280;60646;55.802;37.032;2023-02-28T01:11:53;100118.84;;;-1.56
67515;BMP280;60646;55.802;37.032;2023-02-28T01:14:19;100119.97;;;-1.57
67515;BMP280;60646;55.802;37.032;2023-02-28T01:16:45;100107.66;;;-1.60
67515;BMP280;60646;55.802;37.032;2023-02-28T01:19:11;100076.69;;;-1.79
67515;BMP280;60646;55.802;37.032;2023-02-28T01:21:37;100080.41;;;-1.73
67515;BMP280;60646;55.802;37.032;2023-02-28T01:24:04;100067.72;;;-1.78
67515;BMP280;60646;55.802;37.032;2023-02-28T01:26:30;100069.56;;;-1.75
67515;BMP280;60646;55.802;37.032;2023-02-28T01:28:56;100056.09;;;-1.81
67515;BMP280;60646;55.802;37.032;2023-02-28T01:31:22;100084.47;;;-1.61
67515;BMP280;60646;55.802;37.032;2023-02-28T01:33:49;100055.38;;;-1.78
67515;BMP280;60646;55.802;37.032;2023-02-28T01:36:23;100029.94;;;-1.84
67515;BMP280;60646;55.802;37.032;2023-02-28T01:38:49;100050.47;;;-1.68
67515;BMP280;60646;55.802;37.032;2023-02-28T01:41:30;100065.78;;;-1.67
67515;BMP280;60646;55.802;37.032;2023-02-28T01:43:57;100044.09;;;-1.71
67515;BMP280;60646;55.802;37.032;2023-02-28T01:46:24;100037.38;;;-1.72
67515;BMP280;60646;55.802;37.032;2023-02-28T01:51:35;100018.00;;;-1.85
67515;BMP280;60646;55.802;37.032;2023-02-28T01:54:08;100008.59;;;-1.86
67515;BMP280;60646;55.802;37.032;2023-02-28T01:56:44;99999.69;;;-1.92
67515;BMP280;60646;55.802;37.032;2023-02-28T01:59:15;99986.59;;;-1.99
67515;BMP280;60646;55.802;37.032;2023-02-28T02:01:44;99998.56;;;-1.91
67515;BMP280;60646;55.802;37.032;2023-02-28T02:04:10;99981.41;;;-2.03
67515;BMP280;60646;55.802;37.032;2023-02-28T02:06:39;100003.78;;;-1.84
67515;BMP280;60646;55.802;37.032;2023-02-28T02:09:09;99994.41;;;-1.89
67515;BMP280;60646;55.802;37.032;2023-02-28T02:11:36;99959.75;;;-2.10
67515;BMP280;60646;55.802;37.032;2023-02-28T02:25:41;99993.31;;;-1.84
67515;BMP280;60646;55.802;37.032;2023-02-28T02:39:14;99969.34;;;-1.86
67515;BMP280;60646;55.802;37.032;2023-02-28T02:41:54;99965.63;;;-1.85
67515;BMP280;60646;55.802;37.032;2023-02-28T02:45:07;99954.41;;;-1.89
67515;BMP280;60646;55.802;37.032;2023-02-28T02:47:35;99929.47;;;-2.08
67515;BMP280;60646;55.802;37.032;2023-02-28T02:50:05;99954.78;;;-1.87
67515;BMP280;60646;55.802;37.032;2023-02-28T02:52:42;99935.78;;;-1.98
67515;BMP280;60646;55.802;37.032;2023-02-28T02:55:11;99932.38;;;-1.95
67515;BMP280;60646;55.802;37.032;2023-02-28T02:58:03;99929.03;;;-1.96
67515;BMP280;60646;55.802;37.032;2023-02-28T03:00:42;99923.06;;;-1.96
67515;BMP280;60646;55.802;37.032;2023-02-28T03:03:11;99921.19;;;-1.99
67515;BMP280;60646;55.802;37.032;2023-02-28T03:05:50;99923.78;;;-1.92
67515;BMP280;60646;55.802;37.032;2023-02-28T03:08:17;99930.50;;;-1.88
67515;BMP280;60646;55.802;37.032;2023-02-28T03:10:46;99928.63;;;-1.87
67515;BMP280;60646;55.802;37.032;2023-02-28T03:16:29;99916.28;;;-1.90
67515;BMP280;60646;55.802;37.032;2023-02-28T03:21:53;99897.97;;;-1.90
67515;BMP280;60646;55.802;37.032;2023-02-28T03:30:22;99892.72;;;-1.90
67515;BMP280;60646;55.802;37.032;2023-02-28T03:33:05;99887.13;;;-1.89
67515;BMP280;60646;55.802;37.032;2023-02-28T03:35:45;99894.97;;;-1.89
67515;BMP280;60646;55.802;37.032;2023-02-28T03:38:25;99870.00;;;-2.00
67515;BMP280;60646;55.802;37.032;2023-02-28T03:43:35;99856.63;;;-2.13
67515;BMP280;60646;55.802;37.032;2023-02-28T03:46:04;99885.63;;;-1.90
67515;BMP280;60646;55.802;37.032;2023-02-28T03:48:36;99874.41;;;-1.90
67515;BMP280;60646;55.802;37.032;2023-02-28T03:51:04;99867.69;;;-1.88
67515;BMP280;60646;55.802;37.032;2023-02-28T03:53:56;99850.88;;;-1.94
67515;BMP280;60646;55.802;37.032;2023-02-28T03:56:32;99850.50;;;-1.92
67515;BMP280;60646;55.802;37.032;2023-02-28T03:59:04;99834.53;;;-2.08
67515;BMP280;60646;55.802;37.032;2023-02-28T04:01:35;99819.97;;;-2.09
67515;BMP280;60646;55.802;37.032;2023-02-28T04:04:02;99816.22;;;-2.08
67515;BMP280;60646;55.802;37.032;2023-02-28T04:06:31;99841.56;;;-1.98
67515;BMP280;60646;55.802;37.032;2023-02-28T04:08:58;99814.78;;;-2.16
67515;BMP280;60646;55.802;37.032;2023-02-28T04:13:56;99800.59;;;-2.15
67515;BMP280;60646;55.802;37.032;2023-02-28T04:16:22;99813.25;;;-2.10
67515;BMP280;60646;55.802;37.032;2023-02-28T04:18:47;99803.97;;;-2.22
67515;BMP280;60646;55.802;37.032;2023-02-28T04:21:13;99812.19;;;-2.20
67515;BMP280;60646;55.802;37.032;2023-02-28T04:23:39;99827.41;;;-2.04
67515;BMP280;60646;55.802;37.032;2023-02-28T04:26:05;99786.47;;;-2.29
67515;BMP280;60646;55.802;37.032;2023-02-28T04:28:32;99813.22;;;-2.07
67515;BMP280;60646;55.802;37.032;2023-02-28T04:31:00;99809.84;;;-2.07
67515;BMP280;60646;55.802;37.032;2023-02-28T04:33:26;99775.22;;;-2.26
67515;BMP280;60646;55.802;37.032;2023-02-28T04:36:06;99770.75;;;-2.25
67515;BMP280;60646;55.802;37.032;2023-02-28T04:38:35;99792.31;;;-2.10
67515;BMP280;60646;55.802;37.032;2023-02-28T04:41:04;99764.00;;;-2.19
67515;BMP280;60646;55.802;37.032;2023-02-28T04:43:30;99747.59;;;-2.27
67515;BMP280;60646;55.802;37.032;2023-02-28T04:45:58;99757.63;;;-2.22
67515;BMP280;60646;55.802;37.032;2023-02-28T04:48:26;99769.13;;;-2.08
67515;BMP280;60646;55.802;37.032;2023-02-28T04:50:52;99728.16;;;-2.26
67515;BMP280;60646;55.802;37.032;2023-02-28T04:53:18;99728.88;;;-2.22
67515;BMP280;60646;55.802;37.032;2023-02-28T04:55:44;99750.81;;;-2.08
67515;BMP280;60646;55.802;37.032;2023-02-28T04:58:12;99736.97;;;-2.05
67515;BMP280;60646;55.802;37.032;2023-02-28T05:00:38;99720.59;;;-2.16
67515;BMP280;60646;55.802;37.032;2023-02-28T05:03:04;99714.63;;;-2.17
67515;BMP280;60646;55.802;37.032;2023-02-28T05:05:29;99704.59;;;-2.22
67515;BMP280;60646;55.802;37.032;2023-02-28T05:07:55;99717.22;;;-2.10
67515;BMP280;60646;55.802;37.032;2023-02-28T05:10:24;99732.44;;;-2.01
67515;BMP280;60646;55.802;37.032;2023-02-28T05:12:50;99688.94;;;-2.29
67515;BMP280;60646;55.802;37.032;2023-02-28T05:15:16;99693.72;;;-2.17
67515;BMP280;60646;55.802;37.032;2023-02-28T05:17:42;99675.13;;;-2.30
67515;BMP280;60646;55.802;37.032;2023-02-28T05:20:09;99719.69;;;-1.96
67515;BMP280;60646;55.802;37.032;2023-02-28T05:22:43;99688.81;;;-2.11
67515;BMP280;60646;55.802;37.032;2023-02-28T05:25:15;99680.97;;;-2.11
67515;BMP280;60646;55.802;37.032;2023-02-28T05:27:43;99663.03;;;-2.13
67515;BMP280;60646;55.802;37.032;2023-02-28T05:30:09;99691.28;;;-1.97
67515;BMP280;60646;55.802;37.032;2023-02-28T05:32:38;99654.78;;;-2.11
67515;BMP280;60646;55.802;37.032;2023-02-28T05:35:04;99674.81;;;-1.94
67515;BMP280;60646;55.802;37.032;2023-02-28T05:37:30;99649.47;;;-2.01
67515;BMP280;60646;55.802;37.032;2023-02-28T05:39:56;99651.25;;;-1.94
67515;BMP280;60646;55.802;37.032;2023-02-28T05:42:21;99618.09;;;-2.04
67515;BMP280;60646;55.802;37.032;2023-02-28T05:44:47;99649.22;;;-1.76
67515;BMP280;60646;55.802;37.032;2023-02-28T05:47:13;99620.91;;;-1.88
67515;BMP280;60646;55.802;37.032;2023-02-28T05:49:41;99593.38;;;-2.00
67515;BMP280;60646;55.802;37.032;2023-02-28T05:52:07;99606.66;;;-1.80
67515;BMP280;60646;55.802;37.032;2023-02-28T05:54:33;99611.88;;;-1.80
67515;BMP280;60646;55.802;37.032;2023-02-28T05:56:59;99580.28;;;-1.96
67515;BMP280;60646;55.802;37.032;2023-02-28T05:59:25;99625.44;;;-1.55
67515;BMP280;60646;55.802;37.032;2023-02-28T06:01:50;99560.72;;;-1.85
67515;BMP280;60646;55.802;37.032;2023-02-28T06:04:20;99587.38;;;-1.63
67515;BMP280;60646;55.802;37.032;2023-02-28T06:06:49;99581.34;;;-1.60
67515;BMP280;60646;55.802;37.032;2023-02-28T06:09:17;99610.63;;;-1.38
67515;BMP280;60646;55.802;37.032;2023-02-28T06:11:43;99606.47;;;-1.32
67515;BMP280;60646;55.802;37.032;2023-02-28T06:14:15;99567.38;;;-1.50
67515;BMP280;60646;55.802;37.032;2023-02-28T06:16:42;99602.94;;;-1.22
67515;BMP280;60646;55.802;37.032;2023-02-28T06:19:09;99560.50;;;-1.40
67515;BMP280;60646;55.802;37.032;2023-02-28T06:21:35;99561.88;;;-1.28
67515;BMP280;60646;55.802;37.032;2023-02-28T06:24:01;99552.09;;;-1.24
67515;BMP280;60646;55.802;37.032;2023-02-28T06:26:27;99582.47;;;-1.04
67515;BMP280;60646;55.802;37.032;2023-02-28T06:28:53;99539.16;;;-1.12
67515;BMP280;60646;55.802;37.032;2023-02-28T06:31:19;99526.56;;;-1.20
67515;BMP280;60646;55.802;37.032;2023-02-28T06:33:45;99545.50;;;-1.09
67515;BMP280;60646;55.802;37.032;2023-02-28T06:36:13;99553.69;;;-0.84
67515;BMP280;60646;55.802;37.032;2023-02-28T06:38:39;99521.66;;;-0.95
67515;BMP280;60646;55.802;37.032;2023-02-28T06:41:07;99517.13;;;-0.91
67515;BMP280;60646;55.802;37.032;2023-02-28T06:43:35;99531.00;;;-0.71
67515;BMP280;60646;55.802;37.032;2023-02-28T06:46:03;99524.19;;;-0.65
67515;BMP280;60646;55.802;37.032;2023-02-28T06:48:29;99479.63;;;-0.88
67515;BMP280;60646;55.802;37.032;2023-02-28T06:51:06;99493.16;;;-0.70
67515;BMP280;60646;55.802;37.032;2023-02-28T06:53:32;99499.84;;;-0.46
67515;BMP280;60646;55.802;37.032;2023-02-28T06:55:58;99489.22;;;-0.38
67515;BMP280;60646;55.802;37.032;2023-02-28T06:58:25;99447.59;;;-0.56
67515;BMP280;60646;55.802;37.032;2023-02-28T07:00:52;99493.09;;;-0.23
67515;BMP280;60646;55.802;37.032;2023-02-28T07:03:18;99479.41;;;-0.15
67515;BMP280;60646;55.802;37.032;2023-02-28T07:05:44;99466.03;;;-0.20
67515;BMP280;60646;55.802;37.032;2023-02-28T07:08:10;99439.50;;;-0.26
67515;BMP280;60646;55.802;37.032;2023-02-28T07:10:37;99471.34;;;0.12
67515;BMP280;60646;55.802;37.032;2023-02-28T07:13:04;99419.53;;;-0.04
67515;BMP280;60646;55.802;37.032;2023-02-28T07:15:30;99432.28;;;0.14
67515;BMP280;60646;55.802;37.032;2023-02-28T07:17:56;99429.53;;;0.21
67515;BMP280;60646;55.802;37.032;2023-02-28T07:20:23;99428.81;;;0.33
67515;BMP280;60646;55.802;37.032;2023-02-28T07:22:49;99428.34;;;0.38
67515;BMP280;60646;55.802;37.032;2023-02-28T07:25:23;99420.81;;;0.40
67515;BMP280;60646;55.802;37.032;2023-02-28T07:27:49;99399.78;;;0.40
67515;BMP280;60646;55.802;37.032;2023-02-28T07:30:15;99405.50;;;0.52
67515;BMP280;60646;55.802;37.032;2023-02-28T07:32:40;99400.16;;;0.55
67515;BMP280;60646;55.802;37.032;2023-02-28T07:35:06;99386.38;;;0.51
67515;BMP280;60646;55.802;37.032;2023-02-28T07:37:32;99379.09;;;0.59
67515;BMP280;60646;55.802;37.032;2023-02-28T07:40:04;99401.13;;;0.77
67515;BMP280;60646;55.802;37.032;2023-02-28T07:42:40;99406.44;;;0.90
67515;BMP280;60646;55.802;37.032;2023-02-28T07:45:19;99408.22;;;0.93
67515;BMP280;60646;55.802;37.032;2023-02-28T07:47:45;99409.53;;;1.01
67515;BMP280;60646;55.802;37.032;2023-02-28T07:50:14;99396.28;;;1.05
67515;BMP280;60646;55.802;37.032;2023-02-28T07:52:40;99381.09;;;0.96
67515;BMP280;60646;55.802;37.032;2023-02-28T07:55:07;99385.19;;;1.13
67515;BMP280;60646;55.802;37.032;2023-02-28T07:57:33;99362.03;;;1.08
67515;BMP280;60646;55.802;37.032;2023-02-28T08:00:33;99372.34;;;1.28
67515;BMP280;60646;55.802;37.032;2023-02-28T08:03:02;99362.47;;;1.32
67515;BMP280;60646;55.802;37.032;2023-02-28T08:05:32;99329.41;;;1.18
67515;BMP280;60646;55.802;37.032;2023-02-28T08:07:58;99367.75;;;1.45
67515;BMP280;60646;55.802;37.032;2023-02-28T08:10:24;99345.72;;;1.38
67515;BMP280;60646;55.802;37.032;2023-02-28T08:12:49;99337.31;;;1.44
67515;BMP280;60646;55.802;37.032;2023-02-28T08:15:15;99350.69;;;1.62
67515;BMP280;60646;55.802;37.032;2023-02-28T08:17:41;99321.94;;;1.55
67515;BMP280;60646;55.802;37.032;2023-02-28T08:20:07;99314.38;;;1.57
67515;BMP280;60646;55.802;37.032;2023-02-28T08:22:34;99323.44;;;1.81
67515;BMP280;60646;55.802;37.032;2023-02-28T08:25:00;99306.06;;;1.71
67515;BMP280;60646;55.802;37.032;2023-02-28T08:27:25;99304.16;;;1.84
67515;BMP280;60646;55.802;37.032;2023-02-28T08:29:51;99333.97;;;1.81
67515;BMP280;60646;55.802;37.032;2023-02-28T08:32:17;99323.75;;;1.70
67515;BMP280;60646;55.802;37.032;2023-02-28T08:34:42;99379.19;;;2.01
67515;BMP280;60646;55.802;37.032;2023-02-28T08:37:08;99365.41;;;1.97
67515;BMP280;60646;55.802;37.032;2023-02-28T08:39:35;99401.00;;;2.14
67515;BMP280;60646;55.802;37.032;2023-02-28T08:42:02;99358.88;;;1.89
67515;BMP280;60646;55.802;37.032;2023-02-28T08:44:28;99365.50;;;1.94
67515;BMP280;60646;55.802;37.032;2023-02-28T08:46:54;99382.78;;;2.07
67515;BMP280;60646;55.802;37.032;2023-02-28T08:49:19;99391.06;;;2.18
67515;BMP280;60646;55.802;37.032;2023-02-28T08:51:45;99389.91;;;2.19
67515;BMP280;60646;55.802;37.032;2023-02-28T08:54:11;99358.56;;;2.00
67515;BMP280;60646;55.802;37.032;2023-02-28T08:56:45;99358.88;;;2.02
67515;BMP280;60646;55.802;37.032;2023-02-28T08:59:12;99341.41;;;1.95
67515;BMP280;60646;55.802;37.032;2023-02-28T09:01:39;99365.59;;;2.15
67515;BMP280;60646;55.802;37.032;2023-02-28T09:04:06;99335.03;;;2.05
67515;BMP280;60646;55.802;37.032;2023-02-28T09:06:34;99323.88;;;2.01
67515;BMP280;60646;55.802;37.032;2023-02-28T09:09:00;99352.38;;;2.28
67515;BMP280;60646;55.802;37.032;2023-02-28T09:11:28;99315.25;;;2.13
67515;BMP280;60646;55.802;37.032;2023-02-28T09:13:53;99287.03;;;2.01
67515;BMP280;60646;55.802;37.032;2023-02-28T09:16:21;99330.31;;;2.35
67515;BMP280;60646;55.802;37.032;2023-02-28T09:18:47;99317.69;;;2.29
67515;BMP280;60646;55.802;37.032;2023-02-28T09:21:17;99313.31;;;2.26
67515;BMP280;60646;55.802;37.032;2023-02-28T09:23:45;99345.47;;;2.43
67515;BMP280;60646;55.802;37.032;2023-02-28T09:26:22;99350.94;;;2.49
67515;BMP280;60646;55.802;37.032;2023-02-28T09:28:48;99353.16;;;2.50
67515;BMP280;60646;55.802;37.032;2023-02-28T09:31:33;99335.34;;;2.42
67515;BMP280;60646;55.802;37.032;2023-02-28T09:33:59;99330.81;;;2.42
67515;BMP280;60646;55.802;37.032;2023-02-28T09:36:26;99329.00;;;2.52
67515;BMP280;60646;55.802;37.032;2023-02-28T09:38:53;99315.94;;;2.48
67515;BMP280;60646;55.802;37.032;2023-02-28T09:41:21;99330.97;;;2.60
67515;BMP280;60646;55.802;37.032;2023-02-28T09:43:59;99302.03;;;2.48
67515;BMP280;60646;55.802;37.032;2023-02-28T09:46:35;99313.56;;;2.63
67515;BMP280;60646;55.802;37.032;2023-02-28T09:49:07;99302.13;;;2.66
67515;BMP280;60646;55.802;37.032;2023-02-28T09:54:15;99263.03;;;2.43
67515;BMP280;60646;55.802;37.032;2023-02-28T09:56:48;99267.22;;;2.53
67515;BMP280;60646;55.802;37.032;2023-02-28T10:02:49;99258.78;;;2.58
67515;BMP280;60646;55.802;37.032;2023-02-28T10:05:22;99274.34;;;2.74
67515;BMP280;60646;55.802;37.032;2023-02-28T10:10:42;99236.81;;;2.61
67515;BMP280;60646;55.802;37.032;2023-02-28T10:15:44;99238.59;;;2.73
67515;BMP280;60646;55.802;37.032;2023-02-28T10:18:16;99240.69;;;2.78
67515;BMP280;60646;55.802;37.032;2023-02-28T10:20:45;99241.84;;;2.77
67515;BMP280;60646;55.802;37.032;2023-02-28T10:23:20;99228.06;;;2.73
67515;BMP280;60646;55.802;37.032;2023-02-28T10:26:00;99237.22;;;2.81
67515;BMP280;60646;55.802;37.032;2023-02-28T10:28:44;99226.59;;;2.72
67515;BMP280;60646;55.802;37.032;2023-02-28T10:31:29;99240.13;;;2.83
67515;BMP280;60646;55.802;37.032;2023-02-28T10:33:54;99215.19;;;2.75
67515;BMP280;60646;55.802;37.032;2023-02-28T10:36:21;99239.25;;;2.86
67515;BMP280;60646;55.802;37.032;2023-02-28T10:38:47;99237.34;;;2.87
67515;BMP280;60646;55.802;37.032;2023-02-28T10:41:28;99238.69;;;2.91
67515;BMP280;60646;55.802;37.032;2023-02-28T10:44:21;99193.03;;;2.72
67515;BMP280;60646;55.802;37.032;2023-02-28T10:46:48;99220.81;;;2.95
67515;BMP280;60646;55.802;37.032;2023-02-28T10:49:26;99211.75;;;2.96
67515;BMP280;60646;55.802;37.032;2023-02-28T10:51:56;99187.72;;;2.94
67515;BMP280;60646;55.802;37.032;2023-02-28T10:54:34;99193.88;;;3.00
67515;BMP280;60646;55.802;37.032;2023-02-28T10:59:43;99159.31;;;2.89
67515;BMP280;60646;55.802;37.032;2023-02-28T11:02:48;99176.31;;;3.06
67515;BMP280;60646;55.802;37.032;2023-02-28T11:07:57;99137.47;;;2.98
67515;BMP280;60646;55.802;37.032;2023-02-28T11:10:28;99122.06;;;2.87
67515;BMP280;60646;55.802;37.032;2023-02-28T11:12:56;99154.09;;;3.16
67515;BMP280;60646;55.802;37.032;2023-02-28T11:15:25;99149.06;;;3.09
67515;BMP280;60646;55.802;37.032;2023-02-28T11:20:28;99134.13;;;3.06
67515;BMP280;60646;55.802;37.032;2023-02-28T11:22:55;99141.91;;;3.19
67515;BMP280;60646;55.802;37.032;2023-02-28T11:25:25;99143.53;;;3.16
67515;BMP280;60646;55.802;37.032;2023-02-28T11:28:03;99149.38;;;3.30
67515;BMP280;60646;55.802;37.032;2023-02-28T11:30:38;99157.31;;;3.30
67515;BMP280;60646;55.802;37.032;2023-02-28T11:36:19;99118.00;;;3.13
67515;BMP280;60646;55.802;37.032;2023-02-28T11:38:46;99137.78;;;3.27
67515;BMP280;60646;55.802;37.032;2023-02-28T11:41:48;99136.94;;;3.30
67515;BMP280;60646;55.802;37.032;2023-02-28T11:44:27;99141.75;;;3.41
67515;BMP280;60646;55.802;37.032;2023-02-28T11:47:07;99134.31;;;3.39
67515;BMP280;60646;55.802;37.032;2023-02-28T11:49:50;99118.63;;;3.36
67515;BMP280;60646;55.802;37.032;2023-02-28T11:52:24;99121.84;;;3.40
67515;BMP280;60646;55.802;37.032;2023-02-28T11:55:01;99103.47;;;3.27
67515;BMP280;60646;55.802;37.032;2023-02-28T12:00:52;99093.53;;;3.22
67515;BMP280;60646;55.802;37.032;2023-02-28T12:06:23;99110.84;;;3.41
67515;BMP280;60646;55.802;37.032;2023-02-28T12:09:02;99077.84;;;3.28
67515;BMP280;60646;55.802;37.032;2023-02-28T12:28:14;99084.75;;;3.43
67515;BMP280;60646;55.802;37.032;2023-02-28T12:33:40;99045.59;;;3.33
67515;BMP280;60646;55.802;37.032;2023-02-28T12:36:11;99041.19;;;3.30
67515;BMP280;60646;55.802;37.032;2023-02-28T12:38:42;99040.03;;;3.31
67515;BMP280;60646;55.802;37.032;2023-02-28T12:41:20;99040.31;;;3.33
67515;BMP280;60646;55.802;37.032;2023-02-28T12:44:00;99052.91;;;3.47
67515;BMP280;60646;55.802;37.032;2023-02-28T12:46:37;99046.72;;;3.50
67515;BMP280;60646;55.802;37.032;2023-02-28T12:49:17;99014.50;;;3.37
67515;BMP280;60646;55.802;37.032;2023-02-28T12:51:45;99007.78;;;3.36
67515;BMP280;60646;55.802;37.032;2023-02-28T12:54:21;99016.97;;;3.49
67515;BMP280;60646;55.802;37.032;2023-02-28T12:59:41;98970.22;;;3.32
67515;BMP280;60646;55.802;37.032;2023-02-28T13:10:20;98990.47;;;3.44
67515;BMP280;60646;55.802;37.032;2023-02-28T13:12:53;98983.09;;;3.48
67515;BMP280;60646;55.802;37.032;2023-02-28T13:15:27;98979.88;;;3.53
67515;BMP280;60646;55.802;37.032;2023-02-28T13:17:56;98999.06;;;3.62
67515;BMP280;60646;55.802;37.032;2023-02-28T13:20:29;98982.75;;;3.64
67515;BMP280;60646;55.802;37.032;2023-02-28T13:22:57;98966.38;;;3.51
67515;BMP280;60646;55.802;37.032;2023-02-28T13:27:51;98973.84;;;3.52
67515;BMP280;60646;55.802;37.032;2023-02-28T13:44:39;98971.41;;;3.72
67515;BMP280;60646;55.802;37.032;2023-02-28T13:49:27;98961.03;;;3.69
67515;BMP280;60646;55.802;37.032;2023-02-28T13:52:07;98958.22;;;3.72
67515;BMP280;60646;55.802;37.032;2023-02-28T13:55:00;98955.13;;;3.74
67515;BMP280;60646;55.802;37.032;2023-02-28T14:03:05;98967.16;;;3.75
67515;BMP280;60646;55.802;37.032;2023-02-28T14:05:34;98941.41;;;3.61
67515;BMP280;60646;55.802;37.032;2023-02-28T14:08:06;98963.06;;;3.74
67515;BMP280;60646;55.802;37.032;2023-02-28T14:10:39;98967.59;;;3.73
67515;BMP280;60646;55.802;37.032;2023-02-28T14:16:01;98926.75;;;3.60
67515;BMP280;60646;55.802;37.032;2023-02-28T14:18:33;98935.97;;;3.64
67515;BMP280;60646;55.802;37.032;2023-02-28T14:24:24;98946.31;;;3.77
67515;BMP280;60646;55.802;37.032;2023-02-28T14:37:48;98907.78;;;3.70
67515;BMP280;60646;55.802;37.032;2023-02-28T14:40:37;98902.38;;;3.65
67515;BMP280;60646;55.802;37.032;2023-02-28T14:43:05;98899.69;;;3.74
67515;BMP280;60646;55.802;37.032;2023-02-28T14:45:33;98910.50;;;3.85
67515;BMP280;60646;55.802;37.032;2023-02-28T14:48:01;98901.38;;;3.86
67515;BMP280;60646;55.802;37.032;2023-02-28T14:50:31;98906.66;;;3.86
67515;BMP280;60646;55.802;37.032;2023-02-28T14:52:57;98907.88;;;3.85
67515;BMP280;60646;55.802;37.032;2023-02-28T14:55:36;98879.50;;;3.71
67515;BMP280;60646;55.802;37.032;2023-02-28T14:58:26;98889.13;;;3.74
67515;BMP280;60646;55.802;37.032;2023-02-28T15:00:54;98865.75;;;3.58
67515;BMP280;60646;55.802;37.032;2023-02-28T15:03:40;98903.59;;;3.88
67515;BMP280;60646;55.802;37.032;2023-02-28T15:06:17;98878.56;;;3.74
67515;BMP280;60646;55.802;37.032;2023-02-28T15:08:44;98907.69;;;3.89
67515;BMP280;60646;55.802;37.032;2023-02-28T15:11:18;98890.00;;;3.80
67515;BMP280;60646;55.802;37.032;2023-02-28T15:13:50;98878.56;;;3.74
67515;BMP280;60646;55.802;37.032;2023-02-28T15:17:00;98880.75;;;3.76
67515;BMP280;60646;55.802;37.032;2023-02-28T15:19:13;98896.03;;;3.95
67515;BMP280;60646;55.802;37.032;2023-02-28T15:21:46;98869.28;;;3.79
67515;BMP280;60646;55.802;37.032;2023-02-28T15:26:59;98891.41;;;3.90
67515;BMP280;60646;55.802;37.032;2023-02-28T15:29:28;98872.63;;;3.88
67515;BMP280;60646;55.802;37.032;2023-02-28T15:32:01;98893.53;;;4.01
67515;BMP280;60646;55.802;37.032;2023-02-28T15:34:39;98864.13;;;3.84
67515;BMP280;60646;55.802;37.032;2023-02-28T15:42:39;98850.38;;;3.80
67515;BMP280;60646;55.802;37.032;2023-02-28T15:45:05;98879.00;;;3.96
67515;BMP280;60646;55.802;37.032;2023-02-28T15:47:32;98899.50;;;4.10
67515;BMP280;60646;55.802;37.032;2023-02-28T15:50:04;98902.41;;;4.12
67515;BMP280;60646;55.802;37.032;2023-02-28T15:52:39;98891.91;;;4.18
67515;BMP280;60646;55.802;37.032;2023-02-28T15:55:27;98851.88;;;3.96
67515;BMP280;60646;55.802;37.032;2023-02-28T15:57:55;98874.81;;;4.13
67515;BMP280;60646;55.802;37.032;2023-02-28T16:00:26;98885.03;;;4.20
67515;BMP280;60646;55.802;37.032;2023-02-28T16:02:52;98860.19;;;4.03
67515;BMP280;60646;55.802;37.032;2023-02-28T16:05:27;98855.00;;;4.09
67515;BMP280;60646;55.802;37.032;2023-02-28T16:07:55;98879.13;;;4.26
67515;BMP280;60646;55.802;37.032;2023-02-28T16:10:22;98832.94;;;3.97
67515;BMP280;60646;55.802;37.032;2023-02-28T16:12:55;98847.25;;;4.05
67515;BMP280;60646;55.802;37.032;2023-02-28T16:15:27;98869.44;;;4.22
67515;BMP280;60646;55.802;37.032;2023-02-28T16:17:55;98861.69;;;4.19
67515;BMP280;60646;55.802;37.032;2023-02-28T16:20:23;98873.47;;;4.33
67515;BMP280;60646;55.802;37.032;2023-02-28T16:22:50;98856.69;;;4.21
67515;BMP280;60646;55.802;37.032;2023-02-28T16:25:18;98876.66;;;4.37
67515;BMP280;60646;55.802;37.032;2023-02-28T16:27:47;98843.19;;;4.19
67515;BMP280;60646;55.802;37.032;2023-02-28T16:30:24;98865.47;;;4.42
67515;BMP280;60646;55.802;37.032;2023-02-28T16:32:51;98840.22;;;4.26
67515;BMP280;60646;55.802;37.032;2023-02-28T16:35:18;98820.03;;;4.14
67515;BMP280;60646;55.802;37.032;2023-02-28T16:37:44;98827.16;;;4.22
67515;BMP280;60646;55.802;37.032;2023-02-28T16:40:19;98856.91;;;4.47
67515;BMP280;60646;55.802;37.032;2023-02-28T16:42:48;98850.16;;;4.46
67515;BMP280;60646;55.802;37.032;2023-02-28T16:45:21;98851.44;;;4.50
67515;BMP280;60646;55.802;37.032;2023-02-28T16:47:47;98822.09;;;4.34
67515;BMP280;60646;55.802;37.032;2023-02-28T16:50:22;98817.53;;;4.34